Time;durP1;ratioP1;P1;durP2;ratioP2;P2;SDS_P1;SDS_P2;PMS_P1;PMS_P2;Temp;Humidity;BMP_temperature;BMP_pressure;BME280_temperature;BME280_humidity;BME280_pressure;Samples;Min_cycle;Max_cycle;Signal;HPM_P1;HPM_P2
2021/11/23 10:36:45;;;;;;;2.23;2.00;;;;;;;23.82;31.13;100422.41;5106133;28;20557;-77
2021/11/23 10:39:15;;;;;;;1.87;1.77;;;;;;;25.06;29.44;100425.00;5087649;28;40373;-80
2021/11/23 10:41:51;;;;;;;1.70;1.60;;;;;;;26.66;26.21;100428.59;5106708;28;41944;-78
2021/11/23 10:44:21;;;;;;;1.87;1.77;;;;;;;28.48;25.34;100412.38;5105045;28;43333;-79
2021/11/23 10:46:54;;;;;;;1.70;1.60;;;;;;;30.13;22.21;100426.78;5106741;28;42228;-79
2021/11/23 10:49:27;;;;;;;1.90;1.80;;;;;;;30.96;20.89;100400.13;5104748;28;39773;-78
2021/11/23 10:51:57;;;;;;;2.47;1.73;;;;;;;31.14;20.20;100420.81;5105354;28;42476;-78
2021/11/23 10:54:24;;;;;;;2.30;2.10;;;;;;;30.19;21.34;100404.16;5105406;28;43759;-78
2021/11/23 10:56:56;;;;;;;2.53;2.33;;;;;;;27.98;22.87;100388.88;5122320;27;40799;-80
2021/11/23 10:59:24;;;;;;;2.40;2.20;;;;;;;25.21;25.34;100373.84;5139465;27;39915;-78
2021/11/23 11:01:52;;;;;;;2.33;2.13;;;;;;;23.08;27.53;100351.69;5104860;28;41774;-78
2021/11/23 11:04:20;;;;;;;2.77;2.40;;;;;;;21.49;29.99;100342.28;5105501;28;43453;-78
2021/11/23 11:06:49;;;;;;;2.70;2.27;;;;;;;20.92;30.60;100316.44;5106160;28;43141;-79
2021/11/23 11:09:19;;;;;;;3.47;3.17;;;;;;;21.75;29.60;100326.59;5103848;28;38285;-78
2021/11/23 11:11:48;;;;;;;3.20;2.70;;;;;;;22.64;27.69;100346.69;5103444;28;42668;-80
2021/11/23 11:14:16;;;;;;;2.70;2.50;;;;;;;23.28;26.54;100331.78;5104255;28;43690;-79
2021/11/23 11:16:44;;;;;;;2.23;2.13;;;;;;;24.49;25.29;100353.75;5087714;28;42604;-79
2021/11/23 11:19:14;;;;;;;2.67;2.47;;;;;;;24.55;25.03;100355.88;5105472;28;40700;-78
2021/11/23 11:22:05;;;;;;;2.90;2.70;;;;;;;24.40;25.43;100351.94;5104896;28;42094;-78
2021/11/23 11:24:39;;;;;;;3.03;2.37;;;;;;;23.89;25.41;100352.31;5084170;28;43106;-77
2021/11/23 11:27:41;;;;;;;2.50;1.97;;;;;;;23.27;24.45;100362.53;5067948;28;41055;-77
2021/11/23 11:30:29;;;;;;;2.07;1.97;;;;;;;22.19;24.58;100357.84;5085105;28;40325;-77
2021/11/23 11:33:12;;;;;;;2.10;1.70;;;;;;;22.70;24.43;100351.56;5103488;28;42457;-76
2021/11/23 11:35:42;;;;;;;1.80;1.60;;;;;;;22.96;24.72;100347.41;5104844;28;43375;-79
2021/11/23 11:38:40;;;;;;;1.70;1.60;;;;;;;23.23;24.66;100344.03;5104053;28;42592;-77
2021/11/23 11:41:37;;;;;;;2.27;1.77;;;;;;;24.14;23.78;100345.44;5087164;28;38679;-78
2021/11/23 11:44:10;;;;;;;2.40;2.10;;;;;;;26.58;22.19;100343.44;5104868;28;40380;-80
2021/11/23 11:46:38;;;;;;;2.27;1.70;;;;;;;28.44;20.63;100349.16;5099496;28;42903;-77
2021/11/23 11:49:06;;;;;;;2.03;1.73;;;;;;;29.25;20.47;100350.72;5091211;28;42159;-79
2021/11/23 11:51:41;;;;;;;1.80;1.70;;;;;;;29.49;20.17;100347.88;5090262;28;41473;-79
2021/11/23 11:54:19;;;;;;;2.37;2.00;;;;;;;29.19;20.15;100352.28;5090360;28;42045;-77
2021/11/23 11:56:51;;;;;;;1.90;1.80;;;;;;;29.42;19.09;100357.81;5088646;28;42792;-78
2021/11/23 11:59:34;;;;;;;1.80;1.70;;;;;;;29.90;18.62;100363.94;5089877;28;42505;-77
2021/11/23 12:02:06;;;;;;;2.03;1.83;;;;;;;30.82;18.93;100346.25;5089413;28;39657;-79
2021/11/23 12:04:55;;;;;;;2.00;1.80;;;;;;;32.03;17.91;100343.59;5090280;28;41555;-80
2021/11/23 12:07:22;;;;;;;1.57;1.47;;;;;;;32.86;17.42;100347.38;5091682;28;42690;-78
2021/11/23 12:09:51;;;;;;;1.50;1.40;;;;;;;33.49;16.77;100343.38;5072156;28;42300;-79
2021/11/23 12:12:50;;;;;;;1.93;1.83;;;;;;;34.08;16.05;100347.25;5089244;28;39998;-79
2021/11/23 12:15:39;;;;;;;1.98;1.63;;;;;;;34.38;16.05;100321.00;5090946;28;42698;-83
2021/11/23 12:18:19;;;;;;;1.70;1.60;;;;;;;34.82;15.75;100334.03;5073872;28;41599;-80
2021/11/23 12:20:57;;;;;;;2.40;1.80;;;;;;;35.09;15.66;100329.25;5089697;28;42881;-80
2021/11/23 12:23:32;;;;;;;2.00;1.85;;;;;;;35.12;14.60;100333.47;5091134;28;39938;-80
2021/11/23 12:26:02;;;;;;;1.95;1.85;;;;;;;35.24;14.91;100342.72;5089327;28;40645;-81
2021/11/23 12:28:32;;;;;;;2.78;1.50;;;;;;;35.10;15.05;100325.44;5088986;28;42758;-79
2021/11/23 12:31:06;;;;;;;1.70;1.60;;;;;;;34.88;15.63;100315.78;5089891;28;42144;-78
2021/11/23 12:33:43;;;;;;;1.77;1.67;;;;;;;34.86;15.49;100317.94;5073790;28;39941;-80
2021/11/23 12:36:18;;;;;;;2.20;2.00;;;;;;;34.71;15.33;100322.81;5075313;28;40789;-79
2021/11/23 12:38:47;;;;;;;2.43;1.53;;;;;;;34.27;15.41;100316.16;5089502;28;43014;-77
2021/11/23 12:41:17;;;;;;;1.70;1.60;;;;;;;33.54;15.96;100309.78;5070274;28;41149;-79
2021/11/23 12:43:47;;;;;;;1.83;1.73;;;;;;;33.16;16.20;100314.94;5088398;28;39824;-79
2021/11/23 12:46:18;;;;;;;2.37;1.43;;;;;;;32.66;16.93;100302.47;5088255;28;42313;-77
2021/11/23 12:48:49;;;;;;;2.03;1.83;;;;;;;32.08;16.55;100304.63;5087503;28;43155;-80
2021/11/23 12:51:24;;;;;;;1.83;1.50;;;;;;;31.81;16.55;100300.84;5087438;28;42396;-80
2021/11/23 12:53:55;;;;;;;1.73;1.50;;;;;;;31.39;16.45;100296.22;5088614;28;39787;-80
2021/11/23 12:56:23;;;;;;;1.30;1.20;;;;;;;30.00;17.69;100286.19;5070092;28;40801;-78
2021/11/23 12:58:52;;;;;;;2.00;1.90;;;;;;;27.77;19.13;100276.91;5066903;28;41655;-80
2021/11/23 13:01:24;;;;;;;1.37;1.27;;;;;;;26.16;20.40;100230.13;5088094;28;43081;-79
2021/11/23 13:03:54;;;;;;;1.57;1.40;;;;;;;24.93;21.61;100251.88;5086782;28;40515;-78
2021/11/23 13:06:21;;;;;;;1.80;1.70;;;;;;;23.26;22.37;100224.78;5087182;28;42078;-78
2021/11/23 13:09:05;;;;;;;1.50;1.40;;;;;;;21.83;23.65;100227.84;5089442;28;43544;-77
2021/11/23 13:11:33;;;;;;;1.63;1.53;;;;;;;20.61;24.95;100231.13;5086276;28;42310;-77
2021/11/23 13:14:12;;;;;;;2.07;1.60;;;;;;;19.47;26.09;100222.25;5088241;28;40056;-78
2021/11/23 13:16:47;;;;;;;1.30;1.20;;;;;;;18.53;27.07;100218.69;5088399;28;42709;-80
2021/11/23 13:19:15;;;;;;;1.30;1.20;;;;;;;17.65;28.39;100192.91;5084250;28;43039;-81
2021/11/23 13:21:43;;;;;;;1.80;1.57;;;;;;;17.00;29.15;100199.13;5086752;28;42606;-81
2021/11/23 13:24:11;;;;;;;1.37;1.00;;;;;;;16.30;30.59;100178.84;5086654;28;40691;-81
2021/11/23 13:26:39;;;;;;;1.63;1.53;;;;;;;15.70;31.18;100181.81;5088543;28;40452;-79
2021/11/23 13:29:09;;;;;;;1.23;1.10;;;;;;;15.15;32.38;100166.47;5088738;28;43834;-82
2021/11/23 13:31:40;;;;;;;1.70;1.60;;;;;;;14.60;33.17;100161.72;5063667;28;40960;-79
2021/11/23 13:34:09;;;;;;;1.60;1.10;;;;;;;14.15;34.03;100146.53;5084119;28;40123;-79
2021/11/23 13:36:39;;;;;;;1.40;1.30;;;;;;;13.66;34.20;100132.44;5075755;28;42601;-77
2021/11/23 13:39:14;;;;;;;1.20;1.10;;;;;;;13.46;34.77;100145.97;5089974;28;43518;-81
2021/11/23 13:41:50;;;;;;;1.37;1.27;;;;;;;13.11;35.60;100140.66;5064892;28;41876;-82
2021/11/23 13:44:27;;;;;;;1.33;1.23;;;;;;;12.81;35.92;100131.63;5071452;28;40147;-80
2021/11/23 13:46:57;;;;;;;1.40;1.30;;;;;;;12.52;36.51;100126.00;5071199;28;41970;-78
2021/11/23 13:49:27;;;;;;;1.63;1.43;;;;;;;12.21;37.09;100104.56;5070014;28;43406;-78
2021/11/23 13:52:06;;;;;;;1.60;1.20;;;;;;;12.03;38.13;100126.69;5088895;28;42255;-79
2021/11/23 13:54:44;;;;;;;1.50;1.40;;;;;;;11.72;39.00;100114.84;5071822;28;39213;-80
2021/11/23 13:57:18;;;;;;;1.23;0.97;;;;;;;11.46;39.63;100102.81;5087516;28;40959;-77
2021/11/23 13:59:55;;;;;;;2.00;1.20;;;;;;;11.33;39.53;100111.38;5086974;28;42757;-80
2021/11/23 14:02:41;;;;;;;1.50;0.93;;;;;;;11.13;40.98;100106.97;5069983;28;41673;-79
2021/11/23 14:05:09;;;;;;;2.90;1.70;;;;;;;10.96;41.55;100105.09;5071084;28;38584;-78
2021/11/23 14:07:49;;;;;;;2.87;1.30;;;;;;;10.72;42.37;100079.66;5069863;28;40408;-81
2021/11/23 14:10:26;;;;;;;2.20;1.20;;;;;;;10.72;42.51;100100.84;5086234;28;42194;-78
2021/11/23 14:13:00;;;;;;;1.63;1.50;;;;;;;10.60;42.55;100101.38;5087678;28;42310;-77
2021/11/23 14:15:37;;;;;;;1.97;1.30;;;;;;;10.43;42.92;100078.25;5085677;28;39869;-79
2021/11/23 14:18:12;;;;;;;2.80;1.60;;;;;;;10.49;42.87;100096.53;5088530;28;40964;-79
2021/11/23 14:20:59;;;;;;;2.20;1.23;;;;;;;10.39;43.35;100093.41;5070753;28;42217;-81
2021/11/23 14:23:32;;;;;;;1.93;1.50;;;;;;;10.27;42.86;100101.84;5069859;28;41161;-77
2021/11/23 14:26:15;;;;;;;2.57;1.20;;;;;;;10.19;43.68;100097.81;5069736;28;38794;-77
2021/11/23 14:28:47;;;;;;;3.20;1.90;;;;;;;10.17;43.65;100102.25;5087886;28;41659;-78
2021/11/23 14:31:18;;;;;;;1.47;1.10;;;;;;;10.06;44.64;100069.16;5070330;28;43298;-78
2021/11/23 14:33:47;;;;;;;1.57;1.00;;;;;;;10.14;44.58;100082.06;5087383;28;42933;-79
2021/11/23 14:36:26;;;;;;;1.40;1.30;;;;;;;10.06;45.23;100085.03;5086791;28;39639;-77
2021/11/23 14:38:53;;;;;;;1.37;1.10;;;;;;;9.90;45.44;100081.28;5089545;28;42444;-77
2021/11/23 14:41:21;;;;;;;1.17;1.07;;;;;;;9.71;45.30;100083.81;5069612;28;42783;-79
2021/11/23 14:43:50;;;;;;;2.23;0.90;;;;;;;9.56;45.62;100084.41;5087551;28;42411;-79
2021/11/23 14:46:19;;;;;;;3.03;1.60;;;;;;;9.38;46.09;100087.78;5069042;28;39076;-80
2021/11/23 14:48:47;;;;;;;1.33;1.20;;;;;;;9.20;45.75;100091.09;5087347;28;41699;-79
2021/11/23 14:51:15;;;;;;;1.50;1.00;;;;;;;9.07;45.92;100084.53;5085914;28;42863;-78
2021/11/23 14:53:45;;;;;;;3.43;1.30;;;;;;;8.98;47.10;100081.31;5086749;28;42041;-81
2021/11/23 14:56:12;;;;;;;1.73;1.23;;;;;;;8.88;48.10;100069.38;5086654;28;39021;-83
2021/11/23 14:58:40;;;;;;;3.87;1.57;;;;;;;8.98;47.86;100085.75;5070996;28;41285;-79
2021/11/23 15:01:07;;;;;;;4.00;1.00;;;;;;;8.93;47.83;100083.25;5069905;28;41683;-79
2021/11/23 15:03:37;;;;;;;2.10;1.17;;;;;;;8.82;46.94;100081.91;5087861;28;42970;-78
2021/11/23 15:06:05;;;;;;;0.93;0.83;;;;;;;8.67;47.31;100091.25;5087953;28;40936;-77
2021/11/23 15:08:33;;;;;;;0.87;0.87;;;;;;;8.50;47.46;100093.63;5120347;27;42744;-78
2021/11/23 15:11:00;;;;;;;1.47;1.30;;;;;;;8.28;47.57;100099.56;5120305;27;42651;-78
2021/11/23 15:13:28;;;;;;;1.73;1.00;;;;;;;8.14;48.14;100085.13;5088211;28;42476;-77
2021/11/23 15:15:56;;;;;;;1.57;1.30;;;;;;;7.95;48.44;100098.03;5116260;27;40853;-77
2021/11/23 15:18:23;;;;;;;1.27;1.13;;;;;;;7.82;48.66;100102.84;5070170;28;41679;-78
2021/11/23 15:20:52;;;;;;;2.47;1.27;;;;;;;7.68;48.86;100091.84;5085568;28;41992;-77
2021/11/23 15:23:21;;;;;;;1.70;1.50;;;;;;;7.57;49.67;100094.81;5088988;28;41848;-77
2021/11/23 15:25:50;;;;;;;2.03;1.40;;;;;;;7.45;49.19;100094.31;5101062;28;39103;-76
2021/11/23 15:28:17;;;;;;;3.40;1.83;;;;;;;7.34;50.12;100097.28;5070335;28;41741;-76
2021/11/23 15:30:49;;;;;;;2.20;1.37;;;;;;;7.21;51.66;100086.25;5075530;28;43832;-77
2021/11/23 15:33:18;;;;;;;2.23;1.63;;;;;;;7.06;51.41;100081.41;5089481;28;43118;-77
2021/11/23 15:35:46;;;;;;;1.70;1.30;;;;;;;6.95;51.41;100094.03;5076233;28;40359;-76
2021/11/23 15:38:15;;;;;;;4.90;1.30;;;;;;;6.83;51.36;100089.09;5079672;28;42117;-79
2021/11/23 15:40:43;;;;;;;1.77;1.30;;;;;;;6.73;52.79;100082.38;5117516;28;41906;-77
2021/11/23 15:43:11;;;;;;;3.23;1.60;;;;;;;6.58;52.21;100075.75;5105091;28;42425;-76
2021/11/23 15:45:38;;;;;;;4.77;1.10;;;;;;;6.51;52.32;100084.72;5057359;28;38952;-77
2021/11/23 15:48:06;;;;;;;2.17;1.13;;;;;;;6.42;52.43;100095.50;5079036;28;42370;-78
2021/11/23 15:50:34;;;;;;;2.63;1.77;;;;;;;6.33;52.39;100091.31;5056163;28;42996;-76
2021/11/23 15:53:02;;;;;;;3.27;1.20;;;;;;;6.18;52.67;100077.69;5090040;28;41168;-77
2021/11/23 15:55:34;;;;;;;2.13;1.60;;;;;;;6.15;52.80;100078.63;5072942;28;39165;-76
2021/11/23 15:58:02;;;;;;;1.17;0.97;;;;;;;6.11;52.55;100085.72;5073843;28;41909;-78
2021/11/23 16:00:30;;;;;;;2.77;1.27;;;;;;;6.11;52.88;100093.63;5089404;28;43062;-76
2021/11/23 16:02:58;;;;;;;1.37;0.97;;;;;;;6.08;52.23;100088.44;5091556;28;41903;-78
2021/11/23 16:05:26;;;;;;;2.20;1.80;;;;;;;6.15;51.93;100093.56;5106140;28;40005;-81
2021/11/23 16:07:53;;;;;;;1.13;1.13;;;;;;;6.17;51.78;100105.78;5090586;28;42948;-77
2021/11/23 16:10:21;;;;;;;1.90;0.90;;;;;;;6.17;51.73;100105.78;5106318;28;43085;-78
2021/11/23 16:12:50;;;;;;;1.30;1.10;;;;;;;6.18;51.55;100104.88;5069289;28;42557;-78
2021/11/23 16:15:17;;;;;;;1.90;1.40;;;;;;;6.21;51.32;100109.16;5072342;28;39890;-81
2021/11/23 16:17:45;;;;;;;1.53;1.23;;;;;;;6.21;51.74;100110.03;5073404;28;42007;-81
2021/11/23 16:20:15;;;;;;;1.23;1.13;;;;;;;6.12;52.13;100084.81;5073631;28;41623;-79
2021/11/23 16:22:43;;;;;;;1.53;1.30;;;;;;;6.12;51.82;100100.59;5092235;28;42142;-77
2021/11/23 16:25:11;;;;;;;5.43;1.63;;;;;;;6.17;51.71;100102.28;5089809;28;39927;-80
2021/11/23 16:27:43;;;;;;;2.60;1.63;;;;;;;5.73;52.05;100033.19;5074031;28;41859;-80
2021/11/23 16:30:16;;;;;;;3.17;1.70;;;;;;;6.09;52.29;100099.81;5073354;28;42435;-77
2021/11/23 16:32:47;;;;;;;3.57;2.10;;;;;;;6.02;53.22;100093.84;5090298;28;41891;-78
2021/11/23 16:35:15;;;;;;;2.13;1.70;;;;;;;5.99;54.42;100087.78;5089062;28;40922;-80
2021/11/23 16:37:44;;;;;;;4.07;2.50;;;;;;;5.93;53.87;100088.81;5090707;28;40799;-80
2021/11/23 16:40:12;;;;;;;4.83;2.70;;;;;;;5.87;53.36;100096.81;5088382;28;42896;-77
2021/11/23 16:42:42;;;;;;;4.43;2.07;;;;;;;5.72;53.65;100091.91;5089947;28;42782;-79
2021/11/23 16:45:13;;;;;;;3.23;2.17;;;;;;;5.72;53.41;100105.03;5091563;28;39980;-78
2021/11/23 16:47:41;;;;;;;4.80;2.93;;;;;;;5.65;53.38;100104.34;5090453;28;41814;-79
2021/11/23 16:50:10;;;;;;;2.10;1.90;;;;;;;5.58;54.56;100096.59;5090927;28;42693;-78
2021/11/23 16:52:37;;;;;;;3.63;1.57;;;;;;;5.39;54.06;100091.78;5125048;27;42105;-80
2021/11/23 16:55:09;;;;;;;2.37;1.73;;;;;;;5.38;53.99;100097.06;5073840;28;39728;-82
2021/11/23 16:57:37;;;;;;;2.97;1.63;;;;;;;5.32;54.16;100108.53;5090592;28;43216;-78
2021/11/23 17:00:07;;;;;;;4.37;2.57;;;;;;;5.22;54.02;100109.63;5089348;28;42722;-77
2021/11/23 17:02:36;;;;;;;4.03;2.53;;;;;;;5.10;54.07;100102.00;5088919;28;41115;-77
2021/11/23 17:05:04;;;;;;;4.37;2.90;;;;;;;5.00;54.58;100103.09;5089867;28;38542;-79
2021/11/23 17:07:32;;;;;;;2.77;1.67;;;;;;;4.89;55.05;100099.81;5069316;28;40746;-81
2021/11/23 17:10:00;;;;;;;6.67;2.70;;;;;;;4.70;55.55;100092.28;5086760;28;43278;-76
2021/11/23 17:12:27;;;;;;;5.73;3.23;;;;;;;4.66;55.47;100103.75;5088440;28;42672;-77
2021/11/23 17:14:55;;;;;;;3.60;2.27;;;;;;;4.60;55.71;100098.59;5087021;28;39136;-76
2021/11/23 17:17:22;;;;;;;3.63;2.23;;;;;;;4.52;55.79;100103.13;5103854;28;42361;-76
2021/11/23 17:19:51;;;;;;;2.53;1.97;;;;;;;4.43;56.16;100092.81;5085097;28;42815;-76
2021/11/23 17:22:19;;;;;;;5.97;1.70;;;;;;;4.37;56.44;100100.78;5070743;28;41337;-77
2021/11/23 17:24:49;;;;;;;2.90;1.67;;;;;;;4.30;56.11;100093.94;5121771;27;39853;-77
2021/11/23 17:27:16;;;;;;;2.50;1.90;;;;;;;4.22;56.29;100095.78;5088217;28;41151;-77
2021/11/23 17:29:46;;;;;;;2.60;2.10;;;;;;;4.12;56.74;100084.59;5089248;28;41501;-77
2021/11/23 17:32:13;;;;;;;2.27;2.07;;;;;;;4.06;56.61;100084.72;5072758;28;41439;-76
2021/11/23 17:34:41;;;;;;;3.03;1.80;;;;;;;4.00;57.01;100089.19;5072467;28;39118;-77
2021/11/23 17:37:10;;;;;;;6.23;2.90;;;;;;;3.90;56.91;100094.59;5089389;28;41946;-77
2021/11/23 17:39:47;;;;;;;3.17;2.13;;;;;;;3.83;57.54;100092.94;5088668;28;43796;-75
2021/11/23 17:42:15;;;;;;;2.87;1.83;;;;;;;3.78;57.74;100097.41;5090474;28;42112;-75
2021/11/23 17:44:43;;;;;;;3.93;2.60;;;;;;;3.73;57.96;100093.97;5088415;28;39734;-76
2021/11/23 17:47:20;;;;;;;2.90;2.30;;;;;;;3.68;57.65;100087.94;5123392;27;41950;-75
2021/11/23 17:49:48;;;;;;;3.73;1.80;;;;;;;3.54;57.63;100074.19;5072784;28;41694;-77
2021/11/23 17:52:17;;;;;;;2.57;2.23;;;;;;;3.57;58.02;100090.72;5071975;28;40637;-75
2021/11/23 17:54:45;;;;;;;3.70;2.17;;;;;;;3.52;58.43;100081.19;5090093;28;40717;-76
2021/11/23 17:57:12;;;;;;;1.90;1.73;;;;;;;3.48;58.35;100089.97;5072612;28;40959;-76
2021/11/23 17:59:45;;;;;;;3.10;1.93;;;;;;;3.43;58.88;100097.03;5087634;28;42997;-76
2021/11/23 18:02:14;;;;;;;3.43;2.33;;;;;;;3.41;58.60;100093.56;5089655;28;41282;-77
2021/11/23 18:04:42;;;;;;;1.37;1.27;;;;;;;3.23;58.65;100074.59;5071795;28;38750;-76
2021/11/23 18:07:11;;;;;;;1.30;1.20;;;;;;;3.33;58.66;100100.69;5088675;28;40580;-76
2021/11/23 18:09:43;;;;;;;3.03;1.70;;;;;;;3.30;58.95;100098.09;5088517;28;41343;-76
2021/11/23 18:12:11;;;;;;;1.37;1.23;;;;;;;3.25;58.88;100104.25;5072008;28;42333;-77
2021/11/23 18:14:40;;;;;;;3.73;2.73;;;;;;;3.20;58.95;100106.06;5089799;28;40569;-75
2021/11/23 18:17:08;;;;;;;3.40;2.83;;;;;;;3.14;59.10;100098.28;5082697;28;41557;-79
2021/11/23 18:19:37;;;;;;;5.37;4.00;;;;;;;3.11;58.99;100106.16;5086082;28;42787;-76
2021/11/23 18:22:07;;;;;;;3.43;2.63;;;;;;;3.07;59.25;100107.09;5088420;28;41582;-76
2021/11/23 18:24:35;;;;;;;4.60;3.20;;;;;;;3.03;59.27;100107.16;5071036;28;38902;-75
2021/11/23 18:27:06;;;;;;;2.70;2.50;;;;;;;3.00;59.29;100108.03;5082048;28;40621;-76
2021/11/23 18:29:35;;;;;;;3.80;2.03;;;;;;;2.98;59.25;100101.97;5088002;28;43787;-76
2021/11/23 18:32:03;;;;;;;4.23;2.07;;;;;;;2.94;59.31;100108.13;5071040;28;42536;-77
2021/11/23 18:34:33;;;;;;;3.77;2.43;;;;;;;2.89;59.50;100102.06;5104847;28;38820;-77
2021/11/23 18:37:02;;;;;;;3.37;1.87;;;;;;;2.84;59.57;100106.50;5088742;28;41735;-78
2021/11/23 18:39:30;;;;;;;4.43;2.50;;;;;;;2.78;59.55;100109.19;5071143;28;43213;-77
2021/11/23 18:41:58;;;;;;;3.47;2.40;;;;;;;2.73;59.85;100108.34;5089487;28;43511;-77
2021/11/23 18:44:27;;;;;;;3.87;2.93;;;;;;;2.65;60.48;100097.13;5071291;28;42657;-76
